sensor_id;sensor_type;location;lat;lon;timestamp;temperature;humidity
7822;DHT22;3956;50.558;9.678;2022-07-17T00:00:17;13.80;99.90
7822;DHT22;3956;50.558;9.678;2022-07-17T00:02:46;13.70;99.90
7822;DHT22;3956;50.558;9.678;2022-07-17T00:05:16;13.70;99.90
7822;DHT22;3956;50.558;9.678;2022-07-17T00:07:44;13.70;99.90
7822;DHT22;3956;50.558;9.678;2022-07-17T00:10:14;13.70;99.90
7822;DHT22;3956;50.558;9.678;2022-07-17T00:12:43;13.60;99.90
7822;DHT22;3956;50.558;9.678;2022-07-17T00:15:11;13.60;99.90
7822;DHT22;3956;50.558;9.678;2022-07-17T00:17:43;13.50;99.90
7822;DHT22;3956;50.558;9.678;2022-07-17T00:20:12;13.30;1.00
7822;DHT22;3956;50.558;9.678;2022-07-17T00:22:42;13.10;1.00
7822;DHT22;3956;50.558;9.678;2022-07-17T00:25:10;12.90;1.00
7822;DHT22;3956;50.558;9.678;2022-07-17T00:27:38;12.70;1.00
7822;DHT22;3956;50.558;9.678;2022-07-17T00:30:08;12.70;1.00
7822;DHT22;3956;50.558;9.678;2022-07-17T00:32:36;12.80;1.00
7822;DHT22;3956;50.558;9.678;2022-07-17T00:35:05;12.80;1.00
7822;DHT22;3956;50.558;9.678;2022-07-17T00:37:38;12.80;1.00
7822;DHT22;3956;50.558;9.678;2022-07-17T00:40:11;12.60;1.00
7822;DHT22;3956;50.558;9.678;2022-07-17T00:42:40;12.50;1.00
7822;DHT22;3956;50.558;9.678;2022-07-17T00:45:10;12.50;1.00
7822;DHT22;3956;50.558;9.678;2022-07-17T00:47:50;12.30;1.00
7822;DHT22;3956;50.558;9.678;2022-07-17T00:50:21;12.40;1.00
7822;DHT22;3956;50.558;9.678;2022-07-17T00:52:49;12.40;1.00
7822;DHT22;3956;50.558;9.678;2022-07-17T00:55:19;12.40;1.00
7822;DHT22;3956;50.558;9.678;2022-07-17T00:58:08;12.40;1.00
7822;DHT22;3956;50.558;9.678;2022-07-17T01:00:38;12.30;1.00
7822;DHT22;3956;50.558;9.678;2022-07-17T01:03:08;12.30;1.00
7822;DHT22;3956;50.558;9.678;2022-07-17T01:05:37;12.20;1.00
7822;DHT22;3956;50.558;9.678;2022-07-17T01:08:06;12.20;1.00
7822;DHT22;3956;50.558;9.678;2022-07-17T01:10:36;12.00;1.00
7822;DHT22;3956;50.558;9.678;2022-07-17T01:13:05;12.10;1.00
7822;DHT22;3956;50.558;9.678;2022-07-17T01:15:37;12.10;1.00
7822;DHT22;3956;50.558;9.678;2022-07-17T01:18:06;12.10;1.00
7822;DHT22;3956;50.558;9.678;2022-07-17T01:20:36;12.10;1.00
7822;DHT22;3956;50.558;9.678;2022-07-17T01:23:06;12.10;1.00
7822;DHT22;3956;50.558;9.678;2022-07-17T01:25:35;12.20;1.00
7822;DHT22;3956;50.558;9.678;2022-07-17T01:28:04;12.10;1.00
7822;DHT22;3956;50.558;9.678;2022-07-17T01:30:33;12.20;1.00
7822;DHT22;3956;50.558;9.678;2022-07-17T01:33:03;12.00;1.00
7822;DHT22;3956;50.558;9.678;2022-07-17T01:35:31;12.20;1.00
7822;DHT22;3956;50.558;9.678;2022-07-17T01:38:00;12.10;1.00
7822;DHT22;3956;50.558;9.678;2022-07-17T01:40:30;11.90;1.00
7822;DHT22;3956;50.558;9.678;2022-07-17T01:42:58;11.80;1.00
7822;DHT22;3956;50.558;9.678;2022-07-17T01:45:28;11.70;1.00
7822;DHT22;3956;50.558;9.678;2022-07-17T01:47:57;11.60;1.00
7822;DHT22;3956;50.558;9.678;2022-07-17T01:50:25;11.60;1.00
7822;DHT22;3956;50.558;9.678;2022-07-17T01:52:55;11.70;1.00
7822;DHT22;3956;50.558;9.678;2022-07-17T01:55:24;11.60;1.00
7822;DHT22;3956;50.558;9.678;2022-07-17T01:57:54;11.60;1.00
7822;DHT22;3956;50.558;9.678;2022-07-17T02:00:22;11.60;1.00
7822;DHT22;3956;50.558;9.678;2022-07-17T02:02:52;11.70;1.00
7822;DHT22;3956;50.558;9.678;2022-07-17T02:05:20;11.70;1.00
7822;DHT22;3956;50.558;9.678;2022-07-17T02:07:50;11.60;1.00
7822;DHT22;3956;50.558;9.678;2022-07-17T02:10:22;11.40;1.00
7822;DHT22;3956;50.558;9.678;2022-07-17T02:12:53;11.00;1.00
7822;DHT22;3956;50.558;9.678;2022-07-17T02:15:24;10.90;1.00
7822;DHT22;3956;50.558;9.678;2022-07-17T02:17:53;10.90;1.00
7822;DHT22;3956;50.558;9.678;2022-07-17T02:20:21;10.90;1.00
7822;DHT22;3956;50.558;9.678;2022-07-17T02:22:49;10.80;1.00
7822;DHT22;3956;50.558;9.678;2022-07-17T02:25:20;10.80;1.00
7822;DHT22;3956;50.558;9.678;2022-07-17T02:27:48;10.80;1.00
7822;DHT22;3956;50.558;9.678;2022-07-17T02:30:19;10.80;1.00
7822;DHT22;3956;50.558;9.678;2022-07-17T02:32:47;10.80;1.00
7822;DHT22;3956;50.558;9.678;2022-07-17T02:35:15;10.80;1.00
7822;DHT22;3956;50.558;9.678;2022-07-17T02:37:44;10.80;1.00
7822;DHT22;3956;50.558;9.678;2022-07-17T02:40:12;10.90;1.00
7822;DHT22;3956;50.558;9.678;2022-07-17T02:42:41;10.90;1.00
7822;DHT22;3956;50.558;9.678;2022-07-17T02:45:10;10.90;1.00
7822;DHT22;3956;50.558;9.678;2022-07-17T02:47:41;10.90;1.00
7822;DHT22;3956;50.558;9.678;2022-07-17T02:50:10;10.80;1.00
7822;DHT22;3956;50.558;9.678;2022-07-17T02:52:39;10.70;1.00
7822;DHT22;3956;50.558;9.678;2022-07-17T02:55:08;10.60;1.00
7822;DHT22;3956;50.558;9.678;2022-07-17T02:57:36;10.70;1.00
7822;DHT22;3956;50.558;9.678;2022-07-17T03:00:12;10.50;1.00
7822;DHT22;3956;50.558;9.678;2022-07-17T03:02:45;10.40;1.00
7822;DHT22;3956;50.558;9.678;2022-07-17T03:05:15;10.40;1.00
7822;DHT22;3956;50.558;9.678;2022-07-17T03:07:44;10.40;1.00
7822;DHT22;3956;50.558;9.678;2022-07-17T03:10:12;10.40;1.00
7822;DHT22;3956;50.558;9.678;2022-07-17T03:12:41;10.50;1.00
7822;DHT22;3956;50.558;9.678;2022-07-17T03:15:10;10.50;1.00
7822;DHT22;3956;50.558;9.678;2022-07-17T03:17:39;10.60;1.00
7822;DHT22;3956;50.558;9.678;2022-07-17T03:20:10;10.50;1.00
7822;DHT22;3956;50.558;9.678;2022-07-17T03:22:38;10.40;1.00
7822;DHT22;3956;50.558;9.678;2022-07-17T03:25:09;10.20;1.00
7822;DHT22;3956;50.558;9.678;2022-07-17T03:27:37;9.90;1.00
7822;DHT22;3956;50.558;9.678;2022-07-17T03:30:07;9.90;1.00
7822;DHT22;3956;50.558;9.678;2022-07-17T03:32:36;9.80;1.00
7822;DHT22;3956;50.558;9.678;2022-07-17T03:35:06;9.80;1.00
7822;DHT22;3956;50.558;9.678;2022-07-17T03:37:36;9.60;1.00
7822;DHT22;3956;50.558;9.678;2022-07-17T03:40:06;9.80;1.00
7822;DHT22;3956;50.558;9.678;2022-07-17T03:42:35;9.90;1.00
7822;DHT22;3956;50.558;9.678;2022-07-17T03:45:05;10.00;1.00
7822;DHT22;3956;50.558;9.678;2022-07-17T03:47:33;10.00;1.00
7822;DHT22;3956;50.558;9.678;2022-07-17T03:50:03;10.00;1.00
7822;DHT22;3956;50.558;9.678;2022-07-17T03:52:35;10.10;1.00
7822;DHT22;3956;50.558;9.678;2022-07-17T03:55:04;10.10;1.00
7822;DHT22;3956;50.558;9.678;2022-07-17T03:57:43;10.10;1.00
7822;DHT22;3956;50.558;9.678;2022-07-17T04:01:03;10.20;1.00
7822;DHT22;3956;50.558;9.678;2022-07-17T04:04:25;10.30;1.00
7822;DHT22;3956;50.558;9.678;2022-07-17T04:07:49;10.30;1.00
7822;DHT22;3956;50.558;9.678;2022-07-17T04:10:17;10.20;1.00
7822;DHT22;3956;50.558;9.678;2022-07-17T04:12:46;10.20;1.00
7822;DHT22;3956;50.558;9.678;2022-07-17T04:15:14;10.00;1.00
7822;DHT22;3956;50.558;9.678;2022-07-17T04:18:03;10.00;1.00
7822;DHT22;3956;50.558;9.678;2022-07-17T04:20:33;9.90;1.00
7822;DHT22;3956;50.558;9.678;2022-07-17T04:23:03;9.80;1.00
7822;DHT22;3956;50.558;9.678;2022-07-17T04:25:32;9.80;1.00
7822;DHT22;3956;50.558;9.678;2022-07-17T04:28:00;9.80;1.00
7822;DHT22;3956;50.558;9.678;2022-07-17T04:30:29;9.80;1.00
7822;DHT22;3956;50.558;9.678;2022-07-17T04:32:57;9.80;1.00
7822;DHT22;3956;50.558;9.678;2022-07-17T04:35:25;9.90;1.00
7822;DHT22;3956;50.558;9.678;2022-07-17T04:37:54;10.10;1.00
7822;DHT22;3956;50.558;9.678;2022-07-17T04:40:24;10.20;1.00
7822;DHT22;3956;50.558;9.678;2022-07-17T04:42:53;10.20;1.00
7822;DHT22;3956;50.558;9.678;2022-07-17T04:45:21;10.30;1.00
7822;DHT22;3956;50.558;9.678;2022-07-17T04:47:50;10.10;1.00
7822;DHT22;3956;50.558;9.678;2022-07-17T04:50:18;10.10;1.00
7822;DHT22;3956;50.558;9.678;2022-07-17T04:52:46;10.20;1.00
7822;DHT22;3956;50.558;9.678;2022-07-17T04:55:15;10.40;1.00
7822;DHT22;3956;50.558;9.678;2022-07-17T04:57:45;10.60;1.00
7822;DHT22;3956;50.558;9.678;2022-07-17T05:00:14;10.60;1.00
7822;DHT22;3956;50.558;9.678;2022-07-17T05:02:43;10.70;1.00
7822;DHT22;3956;50.558;9.678;2022-07-17T05:05:12;10.70;1.00
7822;DHT22;3956;50.558;9.678;2022-07-17T05:07:40;10.70;1.00
7822;DHT22;3956;50.558;9.678;2022-07-17T05:10:09;10.70;1.00
7822;DHT22;3956;50.558;9.678;2022-07-17T05:12:37;10.70;1.00
7822;DHT22;3956;50.558;9.678;2022-07-17T05:15:07;10.80;1.00
7822;DHT22;3956;50.558;9.678;2022-07-17T05:17:36;10.90;1.00
7822;DHT22;3956;50.558;9.678;2022-07-17T05:20:06;11.10;1.00
7822;DHT22;3956;50.558;9.678;2022-07-17T05:26:10;11.30;1.00
7822;DHT22;3956;50.558;9.678;2022-07-17T05:28:43;11.20;1.00
7822;DHT22;3956;50.558;9.678;2022-07-17T05:31:13;11.20;1.00
7822;DHT22;3956;50.558;9.678;2022-07-17T05:33:41;11.30;1.00
7822;DHT22;3956;50.558;9.678;2022-07-17T05:39:12;11.40;1.00
7822;DHT22;3956;50.558;9.678;2022-07-17T05:41:41;11.40;1.00
7822;DHT22;3956;50.558;9.678;2022-07-17T05:44:09;11.50;1.00
7822;DHT22;3956;50.558;9.678;2022-07-17T05:46:38;11.50;1.00
7822;DHT22;3956;50.558;9.678;2022-07-17T05:49:07;11.60;1.00
7822;DHT22;3956;50.558;9.678;2022-07-17T05:51:35;11.80;1.00
7822;DHT22;3956;50.558;9.678;2022-07-17T05:54:03;11.70;1.00
7822;DHT22;3956;50.558;9.678;2022-07-17T05:56:31;11.70;1.00
7822;DHT22;3956;50.558;9.678;2022-07-17T05:58:59;11.70;1.00
7822;DHT22;3956;50.558;9.678;2022-07-17T06:01:28;11.80;1.00
7822;DHT22;3956;50.558;9.678;2022-07-17T06:03:58;12.10;1.00
7822;DHT22;3956;50.558;9.678;2022-07-17T06:06:29;12.20;1.00
7822;DHT22;3956;50.558;9.678;2022-07-17T06:12:56;12.60;99.90
7822;DHT22;3956;50.558;9.678;2022-07-17T06:15:25;12.80;99.90
7822;DHT22;3956;50.558;9.678;2022-07-17T06:18:09;13.10;99.90
7822;DHT22;3956;50.558;9.678;2022-07-17T06:20:42;13.10;99.90
7822;DHT22;3956;50.558;9.678;2022-07-17T06:23:10;13.00;99.90
7822;DHT22;3956;50.558;9.678;2022-07-17T06:25:38;13.20;99.90
7822;DHT22;3956;50.558;9.678;2022-07-17T06:28:07;13.20;99.90
7822;DHT22;3956;50.558;9.678;2022-07-17T06:30:36;13.30;99.90
7822;DHT22;3956;50.558;9.678;2022-07-17T06:33:05;13.60;99.90
7822;DHT22;3956;50.558;9.678;2022-07-17T06:35:41;13.40;99.90
7822;DHT22;3956;50.558;9.678;2022-07-17T06:42:34;13.90;99.90
7822;DHT22;3956;50.558;9.678;2022-07-17T06:45:05;13.90;99.90
7822;DHT22;3956;50.558;9.678;2022-07-17T06:47:34;14.40;99.90
7822;DHT22;3956;50.558;9.678;2022-07-17T06:50:02;14.70;99.90
7822;DHT22;3956;50.558;9.678;2022-07-17T06:52:32;15.20;99.90
7822;DHT22;3956;50.558;9.678;2022-07-17T06:55:02;16.10;99.90
7822;DHT22;3956;50.558;9.678;2022-07-17T06:57:36;16.80;99.90
7822;DHT22;3956;50.558;9.678;2022-07-17T07:00:05;18.20;99.90
7822;DHT22;3956;50.558;9.678;2022-07-17T07:02:35;19.10;99.90
7822;DHT22;3956;50.558;9.678;2022-07-17T07:05:05;18.90;99.90
7822;DHT22;3956;50.558;9.678;2022-07-17T07:07:33;19.00;99.90
7822;DHT22;3956;50.558;9.678;2022-07-17T07:10:13;20.30;99.90
7822;DHT22;3956;50.558;9.678;2022-07-17T07:17:11;20.30;99.90
7822;DHT22;3956;50.558;9.678;2022-07-17T07:20:15;20.10;99.90
7822;DHT22;3956;50.558;9.678;2022-07-17T07:22:51;20.90;99.90
7822;DHT22;3956;50.558;9.678;2022-07-17T07:25:24;22.40;99.90
7822;DHT22;3956;50.558;9.678;2022-07-17T07:28:03;23.40;99.90
7822;DHT22;3956;50.558;9.678;2022-07-17T07:31:10;24.60;99.90
7822;DHT22;3956;50.558;9.678;2022-07-17T07:34:29;24.90;99.90
7822;DHT22;3956;50.558;9.678;2022-07-17T07:37:06;25.50;99.90
7822;DHT22;3956;50.558;9.678;2022-07-17T07:39:34;24.10;99.90
7822;DHT22;3956;50.558;9.678;2022-07-17T07:42:02;21.80;99.90
7822;DHT22;3956;50.558;9.678;2022-07-17T07:44:34;23.10;99.90
7822;DHT22;3956;50.558;9.678;2022-07-17T07:47:08;24.00;99.90
7822;DHT22;3956;50.558;9.678;2022-07-17T07:49:43;24.70;99.90
7822;DHT22;3956;50.558;9.678;2022-07-17T07:52:11;25.10;99.90
7822;DHT22;3956;50.558;9.678;2022-07-17T07:54:40;25.40;99.90
7822;DHT22;3956;50.558;9.678;2022-07-17T07:57:08;25.60;99.90
7822;DHT22;3956;50.558;9.678;2022-07-17T07:59:37;26.00;99.90
7822;DHT22;3956;50.558;9.678;2022-07-17T08:02:09;25.60;99.90
7822;DHT22;3956;50.558;9.678;2022-07-17T08:04:40;26.30;99.90
7822;DHT22;3956;50.558;9.678;2022-07-17T08:07:13;23.80;99.90
7822;DHT22;3956;50.558;9.678;2022-07-17T08:09:41;24.40;99.90
7822;DHT22;3956;50.558;9.678;2022-07-17T08:12:10;25.50;99.90
7822;DHT22;3956;50.558;9.678;2022-07-17T08:15:00;25.40;99.90
7822;DHT22;3956;50.558;9.678;2022-07-17T08:17:30;27.40;99.90
7822;DHT22;3956;50.558;9.678;2022-07-17T08:19:59;27.30;99.90
7822;DHT22;3956;50.558;9.678;2022-07-17T08:22:29;26.40;99.90
7822;DHT22;3956;50.558;9.678;2022-07-17T08:25:19;26.70;99.90
7822;DHT22;3956;50.558;9.678;2022-07-17T08:27:51;26.70;99.90
7822;DHT22;3956;50.558;9.678;2022-07-17T08:30:19;26.90;99.90
7822;DHT22;3956;50.558;9.678;2022-07-17T08:32:49;26.40;99.90
7822;DHT22;3956;50.558;9.678;2022-07-17T08:35:22;26.60;99.90
7822;DHT22;3956;50.558;9.678;2022-07-17T08:38:00;25.60;99.90
7822;DHT22;3956;50.558;9.678;2022-07-17T08:40:31;26.30;99.90
7822;DHT22;3956;50.558;9.678;2022-07-17T08:43:02;27.00;99.90
7822;DHT22;3956;50.558;9.678;2022-07-17T08:45:32;27.50;99.90
7822;DHT22;3956;50.558;9.678;2022-07-17T08:48:16;26.90;99.90
7822;DHT22;3956;50.558;9.678;2022-07-17T08:50:58;26.90;99.90
7822;DHT22;3956;50.558;9.678;2022-07-17T08:53:32;26.80;99.90
7822;DHT22;3956;50.558;9.678;2022-07-17T08:56:01;27.20;99.90
7822;DHT22;3956;50.558;9.678;2022-07-17T08:58:29;27.90;99.90
7822;DHT22;3956;50.558;9.678;2022-07-17T09:00:58;27.80;99.90
7822;DHT22;3956;50.558;9.678;2022-07-17T09:03:26;28.20;99.90
7822;DHT22;3956;50.558;9.678;2022-07-17T09:05:57;27.70;99.90
7822;DHT22;3956;50.558;9.678;2022-07-17T09:08:25;28.70;99.90
7822;DHT22;3956;50.558;9.678;2022-07-17T09:10:57;28.90;99.90
7822;DHT22;3956;50.558;9.678;2022-07-17T09:13:30;27.90;99.90
7822;DHT22;3956;50.558;9.678;2022-07-17T09:16:07;29.40;99.90
7822;DHT22;3956;50.558;9.678;2022-07-17T09:18:47;28.80;99.90
7822;DHT22;3956;50.558;9.678;2022-07-17T09:21:18;27.70;99.90
7822;DHT22;3956;50.558;9.678;2022-07-17T09:23:57;27.00;99.90
7822;DHT22;3956;50.558;9.678;2022-07-17T09:26:28;27.80;99.90
7822;DHT22;3956;50.558;9.678;2022-07-17T09:28:58;27.00;99.90
7822;DHT22;3956;50.558;9.678;2022-07-17T09:31:29;27.20;99.90
7822;DHT22;3956;50.558;9.678;2022-07-17T09:33:58;27.00;99.90
7822;DHT22;3956;50.558;9.678;2022-07-17T09:36:27;27.90;99.90
7822;DHT22;3956;50.558;9.678;2022-07-17T09:38:57;28.10;99.90
7822;DHT22;3956;50.558;9.678;2022-07-17T09:41:27;28.80;99.90
7822;DHT22;3956;50.558;9.678;2022-07-17T09:44:02;25.00;99.90
7822;DHT22;3956;50.558;9.678;2022-07-17T09:46:37;25.90;99.90
7822;DHT22;3956;50.558;9.678;2022-07-17T09:49:07;26.30;99.90
7822;DHT22;3956;50.558;9.678;2022-07-17T09:51:40;24.80;99.90
7822;DHT22;3956;50.558;9.678;2022-07-17T09:54:11;23.30;99.90
7822;DHT22;3956;50.558;9.678;2022-07-17T09:56:44;23.60;99.90
7822;DHT22;3956;50.558;9.678;2022-07-17T09:59:17;23.10;99.90
7822;DHT22;3956;50.558;9.678;2022-07-17T10:01:46;23.00;99.90
7822;DHT22;3956;50.558;9.678;2022-07-17T10:04:16;23.40;99.90
7822;DHT22;3956;50.558;9.678;2022-07-17T10:06:45;23.30;99.90
7822;DHT22;3956;50.558;9.678;2022-07-17T10:09:14;23.60;99.90
7822;DHT22;3956;50.558;9.678;2022-07-17T10:11:51;23.20;99.90
7822;DHT22;3956;50.558;9.678;2022-07-17T10:14:21;23.20;99.90
7822;DHT22;3956;50.558;9.678;2022-07-17T10:16:50;23.60;99.90
7822;DHT22;3956;50.558;9.678;2022-07-17T10:19:21;22.80;99.90
7822;DHT22;3956;50.558;9.678;2022-07-17T10:21:54;23.20;99.90
7822;DHT22;3956;50.558;9.678;2022-07-17T10:24:24;22.60;99.90
7822;DHT22;3956;50.558;9.678;2022-07-17T10:26:56;22.60;99.90
7822;DHT22;3956;50.558;9.678;2022-07-17T10:29:37;22.70;99.90
7822;DHT22;3956;50.558;9.678;2022-07-17T10:32:19;22.80;99.90
7822;DHT22;3956;50.558;9.678;2022-07-17T10:34:53;23.30;99.90
7822;DHT22;3956;50.558;9.678;2022-07-17T10:37:24;23.60;99.90
7822;DHT22;3956;50.558;9.678;2022-07-17T10:40:04;23.40;99.90
7822;DHT22;3956;50.558;9.678;2022-07-17T10:42:47;23.70;99.90
7822;DHT22;3956;50.558;9.678;2022-07-17T10:45:17;23.50;99.90
7822;DHT22;3956;50.558;9.678;2022-07-17T10:47:55;23.80;99.90
7822;DHT22;3956;50.558;9.678;2022-07-17T10:51:11;24.10;99.90
7822;DHT22;3956;50.558;9.678;2022-07-17T10:53:41;23.80;99.90
7822;DHT22;3956;50.558;9.678;2022-07-17T10:56:20;23.70;99.90
7822;DHT22;3956;50.558;9.678;2022-07-17T10:59:20;23.40;99.90
7822;DHT22;3956;50.558;9.678;2022-07-17T11:01:58;23.40;99.90
7822;DHT22;3956;50.558;9.678;2022-07-17T11:04:36;24.00;99.90
7822;DHT22;3956;50.558;9.678;2022-07-17T11:07:12;23.90;99.90
7822;DHT22;3956;50.558;9.678;2022-07-17T11:09:46;23.70;99.90
7822;DHT22;3956;50.558;9.678;2022-07-17T11:12:29;23.50;99.90
7822;DHT22;3956;50.558;9.678;2022-07-17T11:15:59;24.00;99.90
7822;DHT22;3956;50.558;9.678;2022-07-17T11:18:46;24.20;99.90
7822;DHT22;3956;50.558;9.678;2022-07-17T11:21:15;23.90;99.90
7822;DHT22;3956;50.558;9.678;2022-07-17T11:23:50;23.70;99.90
7822;DHT22;3956;50.558;9.678;2022-07-17T11:26:20;23.70;99.90
7822;DHT22;3956;50.558;9.678;2022-07-17T11:28:50;23.90;99.90
7822;DHT22;3956;50.558;9.678;2022-07-17T11:31:31;23.70;99.90
7822;DHT22;3956;50.558;9.678;2022-07-17T11:34:07;24.00;99.90
7822;DHT22;3956;50.558;9.678;2022-07-17T11:36:41;24.30;99.90
7822;DHT22;3956;50.558;9.678;2022-07-17T11:39:17;24.00;99.90
7822;DHT22;3956;50.558;9.678;2022-07-17T11:41:55;23.70;99.90
7822;DHT22;3956;50.558;9.678;2022-07-17T11:44:24;24.00;99.90
7822;DHT22;3956;50.558;9.678;2022-07-17T11:46:56;24.00;99.90
7822;DHT22;3956;50.558;9.678;2022-07-17T11:49:38;24.10;99.90
7822;DHT22;3956;50.558;9.678;2022-07-17T11:52:23;24.40;99.90
7822;DHT22;3956;50.558;9.678;2022-07-17T11:55:01;24.40;99.90
7822;DHT22;3956;50.558;9.678;2022-07-17T11:57:43;24.10;99.90
7822;DHT22;3956;50.558;9.678;2022-07-17T12:00:14;24.10;99.90
7822;DHT22;3956;50.558;9.678;2022-07-17T12:02:44;24.30;99.90
7822;DHT22;3956;50.558;9.678;2022-07-17T12:05:14;24.60;99.90
7822;DHT22;3956;50.558;9.678;2022-07-17T12:07:54;24.40;99.90
7822;DHT22;3956;50.558;9.678;2022-07-17T12:10:25;24.20;99.90
7822;DHT22;3956;50.558;9.678;2022-07-17T12:13:00;24.40;99.90
7822;DHT22;3956;50.558;9.678;2022-07-17T12:15:41;24.80;99.90
7822;DHT22;3956;50.558;9.678;2022-07-17T12:18:29;25.00;99.90
7822;DHT22;3956;50.558;9.678;2022-07-17T12:21:08;25.10;99.90
7822;DHT22;3956;50.558;9.678;2022-07-17T12:23:38;25.20;99.90
7822;DHT22;3956;50.558;9.678;2022-07-17T12:26:09;25.10;99.90
7822;DHT22;3956;50.558;9.678;2022-07-17T12:28:49;25.00;99.90
7822;DHT22;3956;50.558;9.678;2022-07-17T12:31:28;25.00;99.90
7822;DHT22;3956;50.558;9.678;2022-07-17T12:34:01;25.20;99.90
7822;DHT22;3956;50.558;9.678;2022-07-17T12:36:29;25.20;99.90
7822;DHT22;3956;50.558;9.678;2022-07-17T12:38:58;25.40;99.90
7822;DHT22;3956;50.558;9.678;2022-07-17T12:41:27;25.00;99.90
7822;DHT22;3956;50.558;9.678;2022-07-17T12:43:55;25.20;99.90
7822;DHT22;3956;50.558;9.678;2022-07-17T12:46:23;25.60;99.90
7822;DHT22;3956;50.558;9.678;2022-07-17T12:48:53;25.50;99.90
7822;DHT22;3956;50.558;9.678;2022-07-17T12:51:24;25.80;99.90
7822;DHT22;3956;50.558;9.678;2022-07-17T12:53:58;26.20;99.90
7822;DHT22;3956;50.558;9.678;2022-07-17T12:56:42;25.90;99.90
7822;DHT22;3956;50.558;9.678;2022-07-17T12:59:52;25.80;99.90
7822;DHT22;3956;50.558;9.678;2022-07-17T13:03:08;26.20;99.90
7822;DHT22;3956;50.558;9.678;2022-07-17T13:05:45;26.30;99.90
7822;DHT22;3956;50.558;9.678;2022-07-17T13:08:21;26.20;99.90
7822;DHT22;3956;50.558;9.678;2022-07-17T13:10:52;26.00;99.90
7822;DHT22;3956;50.558;9.678;2022-07-17T13:13:21;26.00;99.90
7822;DHT22;3956;50.558;9.678;2022-07-17T13:15:57;25.90;99.90
7822;DHT22;3956;50.558;9.678;2022-07-17T13:19:30;25.70;99.90
7822;DHT22;3956;50.558;9.678;2022-07-17T13:21:58;25.80;99.90
7822;DHT22;3956;50.558;9.678;2022-07-17T13:24:28;25.50;99.90
7822;DHT22;3956;50.558;9.678;2022-07-17T13:26:59;25.90;99.90
7822;DHT22;3956;50.558;9.678;2022-07-17T13:29:28;25.40;99.90
7822;DHT22;3956;50.558;9.678;2022-07-17T13:31:56;25.50;99.90
7822;DHT22;3956;50.558;9.678;2022-07-17T13:34:26;26.30;99.90
7822;DHT22;3956;50.558;9.678;2022-07-17T13:36:55;26.10;99.90
7822;DHT22;3956;50.558;9.678;2022-07-17T13:39:31;26.50;99.90
7822;DHT22;3956;50.558;9.678;2022-07-17T13:41:59;26.00;99.90
7822;DHT22;3956;50.558;9.678;2022-07-17T13:44:28;25.90;99.90
7822;DHT22;3956;50.558;9.678;2022-07-17T13:47:01;26.50;99.90
7822;DHT22;3956;50.558;9.678;2022-07-17T13:49:37;25.80;99.90
7822;DHT22;3956;50.558;9.678;2022-07-17T13:52:13;25.80;99.90
7822;DHT22;3956;50.558;9.678;2022-07-17T13:55:13;26.40;99.90
7822;DHT22;3956;50.558;9.678;2022-07-17T13:58:14;26.70;99.90
7822;DHT22;3956;50.558;9.678;2022-07-17T14:00:49;26.50;99.90
7822;DHT22;3956;50.558;9.678;2022-07-17T14:03:17;26.20;99.90
7822;DHT22;3956;50.558;9.678;2022-07-17T14:05:47;26.10;99.90
7822;DHT22;3956;50.558;9.678;2022-07-17T14:08:22;26.10;99.90
7822;DHT22;3956;50.558;9.678;2022-07-17T14:10:56;26.90;99.90
7822;DHT22;3956;50.558;9.678;2022-07-17T14:13:24;27.00;99.90
7822;DHT22;3956;50.558;9.678;2022-07-17T14:16:39;27.30;99.90
7822;DHT22;3956;50.558;9.678;2022-07-17T14:19:37;27.20;99.90
7822;DHT22;3956;50.558;9.678;2022-07-17T14:22:13;27.00;99.90
7822;DHT22;3956;50.558;9.678;2022-07-17T14:24:41;26.50;99.90
7822;DHT22;3956;50.558;9.678;2022-07-17T14:27:10;26.80;99.90
7822;DHT22;3956;50.558;9.678;2022-07-17T14:29:41;27.20;99.90
7822;DHT22;3956;50.558;9.678;2022-07-17T14:32:30;27.30;99.90
7822;DHT22;3956;50.558;9.678;2022-07-17T14:34:58;27.40;99.90
7822;DHT22;3956;50.558;9.678;2022-07-17T14:37:28;26.80;99.90
7822;DHT22;3956;50.558;9.678;2022-07-17T14:39:57;26.70;99.90
7822;DHT22;3956;50.558;9.678;2022-07-17T14:42:25;27.10;99.90
7822;DHT22;3956;50.558;9.678;2022-07-17T14:44:53;27.50;99.90
7822;DHT22;3956;50.558;9.678;2022-07-17T14:47:24;27.60;99.90
7822;DHT22;3956;50.558;9.678;2022-07-17T14:49:58;28.00;99.90
7822;DHT22;3956;50.558;9.678;2022-07-17T14:52:50;27.80;99.90
7822;DHT22;3956;50.558;9.678;2022-07-17T14:55:22;27.30;99.90
7822;DHT22;3956;50.558;9.678;2022-07-17T14:57:56;27.40;99.90
7822;DHT22;3956;50.558;9.678;2022-07-17T15:01:24;27.60;99.90
7822;DHT22;3956;50.558;9.678;2022-07-17T15:03:53;27.70;99.90
7822;DHT22;3956;50.558;9.678;2022-07-17T15:06:24;26.60;99.90
7822;DHT22;3956;50.558;9.678;2022-07-17T15:09:13;27.10;99.90
7822;DHT22;3956;50.558;9.678;2022-07-17T15:11:45;27.20;99.90
7822;DHT22;3956;50.558;9.678;2022-07-17T15:14:21;27.00;99.90
7822;DHT22;3956;50.558;9.678;2022-07-17T15:16:58;27.30;99.90
7822;DHT22;3956;50.558;9.678;2022-07-17T15:19:28;27.30;99.90
7822;DHT22;3956;50.558;9.678;2022-07-17T15:21:58;27.30;99.90
7822;DHT22;3956;50.558;9.678;2022-07-17T15:24:30;27.30;99.90
7822;DHT22;3956;50.558;9.678;2022-07-17T15:27:01;26.80;99.90
7822;DHT22;3956;50.558;9.678;2022-07-17T15:29:30;26.70;99.90
7822;DHT22;3956;50.558;9.678;2022-07-17T15:31:58;26.50;99.90
7822;DHT22;3956;50.558;9.678;2022-07-17T15:34:31;26.90;99.90
7822;DHT22;3956;50.558;9.678;2022-07-17T15:37:01;26.60;99.90
7822;DHT22;3956;50.558;9.678;2022-07-17T15:39:36;26.50;99.90
7822;DHT22;3956;50.558;9.678;2022-07-17T15:42:08;26.90;99.90
7822;DHT22;3956;50.558;9.678;2022-07-17T15:44:38;26.30;99.90
7822;DHT22;3956;50.558;9.678;2022-07-17T15:47:07;26.60;99.90
7822;DHT22;3956;50.558;9.678;2022-07-17T15:49:43;26.50;99.90
7822;DHT22;3956;50.558;9.678;2022-07-17T15:52:53;26.60;99.90
7822;DHT22;3956;50.558;9.678;2022-07-17T15:55:23;26.80;99.90
7822;DHT22;3956;50.558;9.678;2022-07-17T15:58:02;27.00;99.90
7822;DHT22;3956;50.558;9.678;2022-07-17T16:01:32;27.10;99.90
7822;DHT22;3956;50.558;9.678;2022-07-17T16:04:26;27.10;99.90
7822;DHT22;3956;50.558;9.678;2022-07-17T16:07:03;27.20;99.90
7822;DHT22;3956;50.558;9.678;2022-07-17T16:10:42;27.00;99.90
7822;DHT22;3956;50.558;9.678;2022-07-17T16:14:11;26.50;99.90
7822;DHT22;3956;50.558;9.678;2022-07-17T16:17:16;26.30;99.90
7822;DHT22;3956;50.558;9.678;2022-07-17T16:20:01;26.40;99.90
7822;DHT22;3956;50.558;9.678;2022-07-17T16:22:34;26.50;99.90
7822;DHT22;3956;50.558;9.678;2022-07-17T16:25:10;26.60;99.90
7822;DHT22;3956;50.558;9.678;2022-07-17T16:27:53;26.80;99.90
7822;DHT22;3956;50.558;9.678;2022-07-17T16:30:23;26.90;99.90
7822;DHT22;3956;50.558;9.678;2022-07-17T16:32:51;26.90;99.90
7822;DHT22;3956;50.558;9.678;2022-07-17T16:35:21;26.80;99.90
7822;DHT22;3956;50.558;9.678;2022-07-17T16:38:23;26.90;99.90
7822;DHT22;3956;50.558;9.678;2022-07-17T16:40:53;26.20;99.90
7822;DHT22;3956;50.558;9.678;2022-07-17T16:43:27;26.20;99.90
7822;DHT22;3956;50.558;9.678;2022-07-17T16:45:56;26.50;99.90
7822;DHT22;3956;50.558;9.678;2022-07-17T16:48:30;26.70;99.90
7822;DHT22;3956;50.558;9.678;2022-07-17T16:51:01;26.70;99.90
7822;DHT22;3956;50.558;9.678;2022-07-17T16:53:39;26.80;99.90
7822;DHT22;3956;50.558;9.678;2022-07-17T16:56:30;26.80;99.90
7822;DHT22;3956;50.558;9.678;2022-07-17T16:59:08;26.60;99.90
7822;DHT22;3956;50.558;9.678;2022-07-17T17:01:37;26.70;99.90
7822;DHT22;3956;50.558;9.678;2022-07-17T17:04:11;26.60;99.90
7822;DHT22;3956;50.558;9.678;2022-07-17T17:06:47;26.20;99.90
7822;DHT22;3956;50.558;9.678;2022-07-17T17:09:55;26.40;99.90
7822;DHT22;3956;50.558;9.678;2022-07-17T17:13:08;26.40;99.90